Laurel Park, North Carolina
Current Conditions -  °F | °C
As of 12:17 AM on Tuesday 21 Oct 2014 (Local Time) from KAVL Reporting Station
Haze Haze  
Wind Chill: 48°   Ceiling: 200
Heat Index: 48°   Visibility: 0.75mi
Dew Point: 48°   Wind: 0mph
Humidity: 100%   Direction: NA
Pressure: 30.02"   Gusts: NA
Location:  35.2687°N, 82.5413°W
Report Text: KAVL 210417Z AUTO 00000KT 3/4SM BR VV002 09/09 A3002 RMK AO2 T00890089 RVRNO
Loading
Personal Weather Stations






























Interactive Weather Map
Tropical Storm Tracking
New forecast layout! Learn more

10-Day Weather Forecast

Advertisements
Track Severe Weather on mobile